createdAt,value
2023-02-20T00:15:15.783Z,99
2023-02-20T00:30:35.262Z,99
2023-02-20T00:45:54.717Z,99.2
2023-02-20T01:01:14.186Z,99.1
2023-02-20T01:16:33.674Z,98.5
2023-02-20T01:31:53.138Z,98.4
2023-02-20T01:47:12.609Z,97.9
2023-02-20T02:02:32.089Z,96.8
2023-02-20T02:17:51.555Z,96.2
2023-02-20T02:33:10.046Z,97.4
2023-02-20T02:48:29.516Z,98.5
2023-02-20T03:03:48.983Z,99.2
2023-02-20T03:19:08.446Z,98
2023-02-20T03:34:27.933Z,98.2
2023-02-20T03:49:47.407Z,97.1
2023-02-20T04:05:06.864Z,92.6
2023-02-20T04:20:26.334Z,90.2
2023-02-20T04:35:45.810Z,88.7
2023-02-20T04:51:05.272Z,90.9
2023-02-20T05:06:24.753Z,93
2023-02-20T05:21:44.218Z,93.7
2023-02-20T05:37:03.691Z,90.7
2023-02-20T05:52:22.132Z,87.3
2023-02-20T06:07:41.554Z,85.2
2023-02-20T06:23:00.979Z,84.7
2023-02-20T06:38:20.397Z,83.8
2023-02-20T06:53:39.834Z,81.4
2023-02-20T07:08:59.251Z,80
2023-02-20T07:24:18.679Z,79.4
2023-02-20T07:39:38.118Z,79.2
2023-02-20T07:54:57.548Z,77.9
2023-02-20T08:10:16.973Z,74.3
2023-02-20T08:25:36.392Z,74.7
2023-02-20T08:40:55.819Z,73
2023-02-20T08:56:15.261Z,73.9
2023-02-20T09:11:33.699Z,73.7
2023-02-20T09:26:53.102Z,72.2
2023-02-20T09:42:12.541Z,73.2
2023-02-20T09:57:31.981Z,70.7
2023-02-20T10:12:51.398Z,67.4
2023-02-20T10:28:10.812Z,66.9
2023-02-20T10:43:30.256Z,65.1
2023-02-20T10:58:49.682Z,62.9
2023-02-20T11:14:09.080Z,62.8
2023-02-20T11:29:28.505Z,60.3
2023-02-20T11:44:47.925Z,61.4
2023-02-20T12:00:07.353Z,60.4
2023-02-20T12:15:26.789Z,61.7
2023-02-20T12:30:45.207Z,62.5
2023-02-20T12:46:04.644Z,63.5
2023-02-20T13:01:24.080Z,62.5
2023-02-20T13:16:43.493Z,65.3
2023-02-20T13:32:02.929Z,65.8
2023-02-20T13:47:21.364Z,65.8
2023-02-20T14:02:40.781Z,65.2
2023-02-20T14:18:00.232Z,66.3
2023-02-20T14:33:19.624Z,69.3
2023-02-20T14:48:39.055Z,70.4
2023-02-20T15:03:58.492Z,71.7
2023-02-20T15:19:17.923Z,73.3
2023-02-20T15:34:37.337Z,74.6
2023-02-20T15:49:56.770Z,75
2023-02-20T16:05:16.194Z,74.6
2023-02-20T16:20:35.600Z,74.9
2023-02-20T16:35:55.038Z,75.7
2023-02-20T16:51:14.472Z,82.6
2023-02-20T17:06:32.952Z,86.3
2023-02-20T17:21:52.425Z,87.5
2023-02-20T17:37:11.905Z,87.2
2023-02-20T17:52:31.331Z,78.6
2023-02-20T18:07:50.812Z,77.6
2023-02-20T18:23:10.292Z,80.3
2023-02-20T18:38:29.752Z,80.6
2023-02-20T18:53:49.197Z,80
2023-02-20T19:39:47.623Z,82.1
2023-02-20T20:25:45.064Z,82.9
2023-02-20T20:41:04.537Z,82.7
2023-02-20T20:56:24.001Z,82.7
2023-02-20T21:11:43.442Z,82.2
2023-02-20T21:27:02.930Z,82
2023-02-20T21:42:22.398Z,81.5
2023-02-20T21:57:41.833Z,80.7
2023-02-20T22:13:01.335Z,80.2
2023-02-20T22:28:20.769Z,80.6
2023-02-20T22:43:40.279Z,80.4
2023-02-20T22:58:59.711Z,80.8
2023-02-20T23:14:19.187Z,80.7
2023-02-20T23:29:38.670Z,81.6
2023-02-20T23:44:57.160Z,82
